createdAt,value
2017-12-30T00:01:19.254Z,79.77
2017-12-30T00:06:32.089Z,72.33
2017-12-30T00:08:58.847Z,70.97
2017-12-30T00:11:26.567Z,71.53
2017-12-30T00:13:53.315Z,71.50
2017-12-30T00:16:21.017Z,62.90
2017-12-30T00:19:00.250Z,66.53
2017-12-30T00:21:39.712Z,69.53
2017-12-30T00:24:20.259Z,66.93
2017-12-30T00:26:52.759Z,67.00
2017-12-30T00:29:24.149Z,68.27
2017-12-30T00:31:52.898Z,71.00
2017-12-30T00:34:33.820Z,78.57
2017-12-30T00:37:01.529Z,72.40
2017-12-30T00:39:29.263Z,75.93
2017-12-30T00:41:56.035Z,67.90
2017-12-30T00:44:34.412Z,69.87
2017-12-30T00:47:04.250Z,74.77
2017-12-30T00:49:31.923Z,70.87
2017-12-30T00:51:59.139Z,63.33
2017-12-30T00:54:30.316Z,62.27
2017-12-30T00:56:59.103Z,57.30
2017-12-30T01:02:27.163Z,69.93
2017-12-30T01:07:39.808Z,73.83
2017-12-30T01:10:11.691Z,77.00
2017-12-30T01:15:25.489Z,64.27
2017-12-30T01:17:54.195Z,62.50
2017-12-30T01:20:25.472Z,57.47
2017-12-30T01:22:54.303Z,58.40
2017-12-30T01:28:08.131Z,63.73
2017-12-30T01:30:43.110Z,59.20
2017-12-30T01:35:57.671Z,61.13
2017-12-30T01:38:43.841Z,62.10
2017-12-30T01:41:11.607Z,63.07
2017-12-30T01:43:43.161Z,64.23
2017-12-30T01:46:09.855Z,68.00
2017-12-30T01:48:44.931Z,64.43
2017-12-30T01:51:13.601Z,61.97
2017-12-30T01:53:59.556Z,63.63
2017-12-30T01:56:41.127Z,72.63
2017-12-30T01:59:21.756Z,72.07
2017-12-30T02:01:52.015Z,75.93
2017-12-30T02:07:05.097Z,72.20
2017-12-30T02:09:37.555Z,74.13
2017-12-30T02:14:54.063Z,72.63
2017-12-30T02:17:32.529Z,80.80
2017-12-30T02:22:49.703Z,81.97
2017-12-30T02:25:33.387Z,83.13
2017-12-30T02:28:07.493Z,93.17
2017-12-30T02:33:31.801Z,88.97
2017-12-30T02:35:59.578Z,91.90
2017-12-30T02:38:40.921Z,89.57
2017-12-30T02:41:12.231Z,82.57
2017-12-30T02:43:40.953Z,82.43
2017-12-30T02:46:07.719Z,77.93
2017-12-30T02:48:34.558Z,80.23
2017-12-30T02:51:01.342Z,79.97
2017-12-30T02:53:28.405Z,79.10
2017-12-30T02:55:55.161Z,78.60
2017-12-30T02:58:21.911Z,79.77
2017-12-30T03:00:48.591Z,79.03
2017-12-30T03:03:15.357Z,76.03
2017-12-30T03:05:42.071Z,83.63
2017-12-30T03:08:12.626Z,81.80
2017-12-30T03:13:37.307Z,77.17
2017-12-30T03:16:08.477Z,84.60
2017-12-30T03:18:42.665Z,83.80
2017-12-30T03:21:14.607Z,83.90
2017-12-30T03:23:43.421Z,71.40
2017-12-30T03:26:10.135Z,67.43
2017-12-30T03:28:43.737Z,61.67
2017-12-30T03:31:10.461Z,66.33
2017-12-30T03:33:47.673Z,70.27
2017-12-30T03:36:14.385Z,67.03
2017-12-30T03:38:42.149Z,63.60
2017-12-30T03:41:08.967Z,61.07
2017-12-30T03:43:41.056Z,52.80
2017-12-30T03:49:06.181Z,53.07
2017-12-30T03:51:51.745Z,51.23
2017-12-30T03:54:35.896Z,51.77
2017-12-30T03:57:07.333Z,49.07
2017-12-30T03:59:49.233Z,46.60
2017-12-30T04:02:21.939Z,44.33
2017-12-30T04:05:03.647Z,47.73
2017-12-30T04:10:29.693Z,44.33
2017-12-30T04:13:10.250Z,40.20
2017-12-30T04:15:47.121Z,41.10
2017-12-30T04:18:13.896Z,42.77
2017-12-30T04:20:44.438Z,40.20
2017-12-30T04:23:13.140Z,42.73
2017-12-30T04:25:39.907Z,44.40
2017-12-30T04:28:07.623Z,43.40
2017-12-30T04:30:35.391Z,42.37
2017-12-30T04:33:03.157Z,43.17
2017-12-30T04:35:35.461Z,37.13
2017-12-30T04:38:03.161Z,45.97
2017-12-30T04:40:41.519Z,45.17
2017-12-30T04:43:19.255Z,42.70
2017-12-30T04:45:53.150Z,40.27
2017-12-30T04:48:26.673Z,38.43
2017-12-30T04:50:53.450Z,40.97
2017-12-30T04:53:34.695Z,44.00
2017-12-30T04:56:07.770Z,42.83
2017-12-30T04:58:48.018Z,40.27
2017-12-30T05:01:15.746Z,41.73
2017-12-30T05:03:45.619Z,46.33
2017-12-30T05:06:18.363Z,47.27
2017-12-30T05:09:04.081Z,45.07
2017-12-30T05:11:44.747Z,43.60
2017-12-30T05:14:24.308Z,41.00
2017-12-30T05:16:57.116Z,46.33
2017-12-30T05:19:25.865Z,49.93
2017-12-30T05:22:00.034Z,43.47
2017-12-30T05:24:42.186Z,45.17
2017-12-30T05:27:16.354Z,44.30
2017-12-30T05:35:18.954Z,43.70
2017-12-30T05:37:53.454Z,47.07
2017-12-30T05:40:26.129Z,46.77
2017-12-30T05:42:55.001Z,48.37
2017-12-30T05:48:09.187Z,48.13
2017-12-30T05:50:40.961Z,44.20
2017-12-30T05:56:03.686Z,40.57
2017-12-30T05:58:30.480Z,44.17
2017-12-30T06:01:02.438Z,42.17
2017-12-30T06:03:37.077Z,42.33
2017-12-30T06:06:16.405Z,42.20
2017-12-30T06:08:43.185Z,39.60
2017-12-30T06:11:09.912Z,39.23
2017-12-30T06:13:38.665Z,38.83
2017-12-30T06:16:17.381Z,39.03
2017-12-30T06:19:02.306Z,33.83
2017-12-30T06:24:15.805Z,33.83
2017-12-30T06:26:54.235Z,33.13
2017-12-30T06:29:31.851Z,33.37
2017-12-30T06:31:58.625Z,30.77
2017-12-30T06:34:26.338Z,30.20
2017-12-30T06:37:04.506Z,29.07
2017-12-30T06:42:24.721Z,29.10
2017-12-30T06:45:03.392Z,27.57
2017-12-30T06:50:16.398Z,29.77
2017-12-30T06:52:44.130Z,30.53
2017-12-30T06:55:10.844Z,29.87
2017-12-30T06:57:37.574Z,32.90
2017-12-30T07:00:08.659Z,33.83
2017-12-30T07:02:48.097Z,31.47
2017-12-30T07:05:14.844Z,31.00
2017-12-30T07:07:41.575Z,32.10
2017-12-30T07:10:20.010Z,29.10
2017-12-30T07:12:46.722Z,33.23
2017-12-30T07:15:13.434Z,32.33
2017-12-30T07:17:50.892Z,32.03
2017-12-30T07:20:28.340Z,34.00
2017-12-30T07:22:58.294Z,32.37
2017-12-30T07:25:25.975Z,33.67
2017-12-30T07:27:52.678Z,32.37
2017-12-30T07:30:22.978Z,32.37
2017-12-30T07:32:56.908Z,31.93
2017-12-30T07:35:28.579Z,30.63
2017-12-30T07:37:56.112Z,29.73
2017-12-30T07:40:22.841Z,30.03
2017-12-30T07:42:49.632Z,30.47
2017-12-30T07:48:10.182Z,29.37
2017-12-30T07:50:36.932Z,31.83
2017-12-30T07:55:49.686Z,31.27
2017-12-30T07:58:17.318Z,31.30
2017-12-30T08:00:52.865Z,32.83
2017-12-30T08:03:20.579Z,34.33
2017-12-30T08:08:43.672Z,32.00
2017-12-30T08:11:11.382Z,36.07
2017-12-30T08:13:45.646Z,35.87
2017-12-30T08:16:17.180Z,35.97
2017-12-30T08:19:00.251Z,36.40
2017-12-30T08:21:33.258Z,34.30
2017-12-30T08:24:02.024Z,32.30
2017-12-30T08:26:31.882Z,31.43
2017-12-30T08:28:59.578Z,32.90
2017-12-30T08:31:33.782Z,35.90
2017-12-30T08:34:04.828Z,32.53
2017-12-30T08:36:31.512Z,30.97
2017-12-30T08:41:44.682Z,34.33
2017-12-30T08:44:11.394Z,30.60
2017-12-30T08:46:48.044Z,30.53
2017-12-30T08:49:18.886Z,30.43
2017-12-30T08:54:36.894Z,30.50
2017-12-30T08:59:55.588Z,25.60
2017-12-30T09:02:34.114Z,25.47
2017-12-30T09:05:00.888Z,25.30
2017-12-30T09:07:27.556Z,24.20
2017-12-30T09:09:54.258Z,25.73
2017-12-30T09:12:21.210Z,26.87
2017-12-30T09:14:47.908Z,27.13
2017-12-30T09:17:14.594Z,25.93
2017-12-30T09:19:41.326Z,26.90
2017-12-30T09:22:08.074Z,26.43
2017-12-30T09:24:34.796Z,29.90
2017-12-30T09:27:01.542Z,31.57
2017-12-30T09:29:28.324Z,28.80
2017-12-30T09:31:55.354Z,29.00
2017-12-30T09:34:22.079Z,32.30
2017-12-30T09:36:55.556Z,32.50
2017-12-30T09:39:22.322Z,32.97
2017-12-30T09:41:58.934Z,35.53
2017-12-30T09:44:42.140Z,36.10
2017-12-30T09:47:08.843Z,39.90
2017-12-30T09:49:43.600Z,40.20
2017-12-30T09:52:10.284Z,42.17
2017-12-30T09:54:36.986Z,42.07
2017-12-30T09:57:17.875Z,42.83
2017-12-30T09:59:49.066Z,40.03
2017-12-30T10:02:17.802Z,40.37
2017-12-30T10:04:44.504Z,41.37
2017-12-30T10:07:11.189Z,42.07
2017-12-30T10:09:52.511Z,39.40
2017-12-30T10:12:19.949Z,41.13
2017-12-30T10:14:48.668Z,43.17
2017-12-30T10:17:15.394Z,47.67
2017-12-30T10:19:42.123Z,48.87
2017-12-30T10:22:08.803Z,50.23
2017-12-30T10:24:35.551Z,48.23
2017-12-30T10:27:11.083Z,45.13
2017-12-30T10:32:23.686Z,45.20
2017-12-30T10:35:01.359Z,51.10
2017-12-30T10:40:13.440Z,49.73
2017-12-30T10:42:40.143Z,48.70
2017-12-30T10:45:06.871Z,48.13
2017-12-30T10:47:39.046Z,44.37
2017-12-30T10:52:51.911Z,42.30
2017-12-30T10:55:19.635Z,40.30
2017-12-30T10:58:03.127Z,42.17
2017-12-30T11:00:44.661Z,46.03
2017-12-30T11:03:11.382Z,50.03
2017-12-30T11:05:43.721Z,47.87
2017-12-30T11:08:10.404Z,43.20
2017-12-30T11:10:46.829Z,40.93
2017-12-30T11:13:13.528Z,41.00
2017-12-30T11:15:40.234Z,43.93
2017-12-30T11:18:06.991Z,41.83
2017-12-30T11:23:22.752Z,29.83
2017-12-30T11:25:49.482Z,20.63
2017-12-30T11:28:16.186Z,19.60
2017-12-30T11:30:42.916Z,17.17
2017-12-30T11:33:09.624Z,15.60
2017-12-30T11:38:23.410Z,15.00
2017-12-30T11:40:50.184Z,13.80
2017-12-30T11:46:09.004Z,16.47
2017-12-30T11:48:35.708Z,14.97
2017-12-30T11:53:59.150Z,16.23
2017-12-30T11:56:33.890Z,14.37
2017-12-30T11:59:01.543Z,12.70
2017-12-30T12:01:28.247Z,11.60
2017-12-30T12:04:13.523Z,9.73
2017-12-30T12:06:40.228Z,10.87
2017-12-30T12:09:07.916Z,9.37
2017-12-30T12:11:35.458Z,12.27
2017-12-30T12:14:02.154Z,11.40
2017-12-30T12:16:28.893Z,12.93
2017-12-30T12:19:06.416Z,13.90
2017-12-30T12:21:33.298Z,11.73
2017-12-30T12:23:59.994Z,13.87
2017-12-30T12:26:31.346Z,13.87
2017-12-30T12:28:58.096Z,13.90
2017-12-30T12:31:42.040Z,12.70
2017-12-30T12:37:02.574Z,14.30
2017-12-30T12:39:33.370Z,14.23
2017-12-30T12:42:00.095Z,16.10
2017-12-30T12:44:33.278Z,21.13
2017-12-30T12:47:00.038Z,20.13
2017-12-30T12:49:26.714Z,20.03
2017-12-30T12:54:40.644Z,13.53
2017-12-30T12:57:16.628Z,14.53
2017-12-30T12:59:43.332Z,16.47
2017-12-30T13:02:10.027Z,15.50
2017-12-30T13:04:36.844Z,16.97
2017-12-30T13:07:05.505Z,16.10
2017-12-30T13:09:32.207Z,17.00
2017-12-30T13:11:59.250Z,18.53
2017-12-30T13:14:34.107Z,16.43
2017-12-30T13:17:00.849Z,17.23
2017-12-30T13:19:27.646Z,16.90
2017-12-30T13:22:11.008Z,17.87
2017-12-30T13:24:37.762Z,19.23
2017-12-30T13:27:04.447Z,17.60
2017-12-30T13:29:35.005Z,19.13
2017-12-30T13:32:01.687Z,18.73
2017-12-30T13:34:34.026Z,15.57
2017-12-30T13:37:00.746Z,14.67
2017-12-30T13:39:27.490Z,15.67
2017-12-30T13:41:54.191Z,14.70
2017-12-30T13:44:20.923Z,17.37
2017-12-30T13:46:47.616Z,17.47
2017-12-30T13:49:14.319Z,18.53
2017-12-30T13:51:49.625Z,19.77
2017-12-30T13:54:16.392Z,21.53
2017-12-30T13:59:40.927Z,22.23
2017-12-30T14:02:13.829Z,22.20
2017-12-30T14:04:40.584Z,23.73
2017-12-30T14:07:14.033Z,23.17
2017-12-30T14:09:40.763Z,24.90
2017-12-30T14:12:07.443Z,23.60
2017-12-30T14:14:34.194Z,21.77
2017-12-30T14:17:00.887Z,26.23
2017-12-30T14:19:27.597Z,25.20
2017-12-30T14:22:05.570Z,28.07
2017-12-30T14:24:32.251Z,26.50
2017-12-30T14:26:58.935Z,27.63
2017-12-30T14:29:26.383Z,29.23
2017-12-30T14:31:53.339Z,31.53
2017-12-30T14:34:20.047Z,30.37
2017-12-30T14:36:46.820Z,32.73
2017-12-30T14:39:13.533Z,32.53
2017-12-30T14:41:40.225Z,34.13
2017-12-30T14:44:06.970Z,34.97
2017-12-30T14:46:33.652Z,33.13
2017-12-30T14:49:00.347Z,34.43
2017-12-30T14:51:27.070Z,34.67
2017-12-30T14:54:08.186Z,34.13
2017-12-30T14:56:34.913Z,31.10
2017-12-30T14:59:02.135Z,31.47
2017-12-30T15:01:28.823Z,30.27
2017-12-30T15:03:55.547Z,31.63
2017-12-30T15:06:22.241Z,31.83
2017-12-30T15:08:49.300Z,31.80
2017-12-30T15:11:16.037Z,34.30
2017-12-30T15:13:43.595Z,36.93
2017-12-30T15:16:10.278Z,35.53
2017-12-30T15:18:36.995Z,32.67
2017-12-30T15:21:03.699Z,36.67
2017-12-30T15:23:30.615Z,35.33
2017-12-30T15:25:57.395Z,35.40
2017-12-30T15:28:24.071Z,37.50
2017-12-30T15:30:50.761Z,39.03
2017-12-30T15:33:17.483Z,39.60
2017-12-30T15:35:44.161Z,40.70
2017-12-30T15:38:10.849Z,40.47
2017-12-30T15:40:37.615Z,40.17
2017-12-30T15:43:04.293Z,35.43
2017-12-30T15:45:31.041Z,33.47
2017-12-30T15:47:57.807Z,33.13
2017-12-30T15:50:24.790Z,37.23
2017-12-30T15:52:51.486Z,34.13
2017-12-30T15:55:18.223Z,33.60
2017-12-30T15:57:44.911Z,32.53
2017-12-30T16:00:11.606Z,32.80
2017-12-30T16:02:41.937Z,34.27
2017-12-30T16:05:09.677Z,32.13
2017-12-30T16:07:36.363Z,31.37
2017-12-30T16:10:03.099Z,31.10
2017-12-30T16:12:29.785Z,30.73
2017-12-30T16:14:56.482Z,32.57
2017-12-30T16:17:23.227Z,32.83
2017-12-30T16:19:49.909Z,36.30
2017-12-30T16:22:16.660Z,32.60
2017-12-30T16:24:43.431Z,38.10
2017-12-30T16:27:10.121Z,36.80
2017-12-30T16:29:36.875Z,35.00
2017-12-30T16:32:03.621Z,33.90
2017-12-30T16:34:30.319Z,32.53
2017-12-30T16:37:09.533Z,31.37
2017-12-30T16:39:36.214Z,32.43
2017-12-30T16:42:02.902Z,29.63
2017-12-30T16:44:31.651Z,29.20
2017-12-30T16:46:58.421Z,27.77
2017-12-30T16:49:25.097Z,27.47
2017-12-30T16:51:51.908Z,28.00
2017-12-30T16:54:18.657Z,29.10
2017-12-30T16:56:45.347Z,28.83
2017-12-30T16:59:12.085Z,31.13
2017-12-30T17:01:38.792Z,31.40
2017-12-30T17:04:05.480Z,33.57
2017-12-30T17:06:32.258Z,31.33
2017-12-30T17:08:58.957Z,31.97
2017-12-30T17:11:25.694Z,34.63
2017-12-30T17:13:52.428Z,34.77
2017-12-30T17:16:19.144Z,32.37
2017-12-30T17:18:45.886Z,34.43
2017-12-30T17:21:12.618Z,32.87
2017-12-30T17:23:39.983Z,30.57
2017-12-30T17:26:06.685Z,32.50
2017-12-30T17:28:33.421Z,32.97
2017-12-30T17:31:10.991Z,30.43
2017-12-30T17:33:37.743Z,27.07
2017-12-30T17:36:04.496Z,26.17
2017-12-30T17:38:31.210Z,28.53
2017-12-30T17:41:04.000Z,29.27
2017-12-30T17:43:30.687Z,29.30
2017-12-30T17:45:57.387Z,26.93
2017-12-30T17:48:25.016Z,27.43
2017-12-30T17:50:51.738Z,25.17
2017-12-30T17:53:18.456Z,27.13
2017-12-30T17:55:45.197Z,25.53
2017-12-30T17:58:11.927Z,23.87
2017-12-30T18:00:38.882Z,25.07
2017-12-30T18:03:05.711Z,26.07
2017-12-30T18:05:32.431Z,26.83
2017-12-30T18:07:59.751Z,26.27
2017-12-30T18:13:12.205Z,25.90
2017-12-30T18:15:38.937Z,26.77
2017-12-30T18:18:05.642Z,26.30
2017-12-30T18:20:32.315Z,31.10
2017-12-30T18:22:59.066Z,32.87
2017-12-30T18:25:25.761Z,35.83
2017-12-30T18:27:52.447Z,35.37
2017-12-30T18:30:20.961Z,37.23
2017-12-30T18:32:47.666Z,35.27
2017-12-30T18:35:14.376Z,39.03
2017-12-30T18:37:41.107Z,37.17
2017-12-30T18:40:07.821Z,33.63
2017-12-30T18:42:34.536Z,31.50
2017-12-30T18:45:01.264Z,30.63
2017-12-30T18:47:27.956Z,29.73
2017-12-30T18:49:54.686Z,26.77
2017-12-30T18:52:21.431Z,27.00
2017-12-30T18:54:48.143Z,29.90
2017-12-30T18:57:23.526Z,29.23
2017-12-30T18:59:50.220Z,30.50
2017-12-30T19:02:16.926Z,30.67
2017-12-30T19:04:43.659Z,26.47
2017-12-30T19:07:10.385Z,28.60
2017-12-30T19:09:38.123Z,28.00
2017-12-30T19:12:04.899Z,28.30
2017-12-30T19:14:32.655Z,30.00
2017-12-30T19:17:00.387Z,31.93
2017-12-30T19:19:27.355Z,32.27
2017-12-30T19:21:57.339Z,33.63
2017-12-30T19:24:24.047Z,32.63
2017-12-30T19:26:51.003Z,32.73
2017-12-30T19:29:17.729Z,35.57
2017-12-30T19:31:44.439Z,32.23
2017-12-30T19:34:11.175Z,33.63
2017-12-30T19:36:37.878Z,34.97
2017-12-30T19:39:04.630Z,34.53
2017-12-30T19:41:32.313Z,38.47
2017-12-30T19:43:59.024Z,35.63
2017-12-30T19:46:25.705Z,35.23
2017-12-30T19:48:52.455Z,31.13
2017-12-30T19:51:19.156Z,27.90
2017-12-30T19:53:45.845Z,25.47
2017-12-30T19:56:12.571Z,23.57
2017-12-30T19:58:39.259Z,22.20
2017-12-30T20:01:05.949Z,20.83
2017-12-30T20:03:32.717Z,21.93
2017-12-30T20:05:59.421Z,22.60
2017-12-30T20:08:26.110Z,24.23
2017-12-30T20:10:52.898Z,25.40
2017-12-30T20:16:10.238Z,24.80
2017-12-30T20:18:36.918Z,25.77
2017-12-30T20:21:03.609Z,25.30
2017-12-30T20:23:30.411Z,23.17
2017-12-30T20:25:57.163Z,22.63
2017-12-30T20:28:23.848Z,22.23
2017-12-30T20:30:51.187Z,21.03
2017-12-30T20:33:17.863Z,20.17
2017-12-30T20:35:45.530Z,19.87
2017-12-30T20:38:12.286Z,20.17
2017-12-30T20:40:38.987Z,18.20
2017-12-30T20:43:05.753Z,18.37
2017-12-30T20:45:32.517Z,16.87
2017-12-30T20:47:59.240Z,17.60
2017-12-30T20:50:26.619Z,17.57
2017-12-30T20:52:53.379Z,16.50
2017-12-30T20:55:20.303Z,16.50
2017-12-30T20:57:47.007Z,17.63
2017-12-30T21:00:13.725Z,17.70
2017-12-30T21:02:40.453Z,18.83
2017-12-30T21:05:07.155Z,18.10
2017-12-30T21:07:33.896Z,19.37
2017-12-30T21:10:00.612Z,17.60
2017-12-30T21:12:27.342Z,21.33
2017-12-30T21:14:54.148Z,20.03
2017-12-30T21:17:21.686Z,26.37
2017-12-30T21:19:49.423Z,29.13
2017-12-30T21:22:16.166Z,31.70
2017-12-30T21:24:42.874Z,31.53
2017-12-30T21:27:23.819Z,37.60
2017-12-30T21:29:50.528Z,31.50
2017-12-30T21:32:17.221Z,31.83
2017-12-30T21:34:44.552Z,32.63
2017-12-30T21:37:11.258Z,34.57
2017-12-30T21:39:37.974Z,38.00
2017-12-30T21:42:04.704Z,40.23
2017-12-30T21:44:31.405Z,40.63
2017-12-30T21:46:58.102Z,45.33
2017-12-30T21:49:25.742Z,38.63
2017-12-30T21:51:52.429Z,37.00
2017-12-30T21:54:19.179Z,38.30
2017-12-30T21:56:45.908Z,38.57
2017-12-30T21:59:14.648Z,42.57
2017-12-30T22:01:41.331Z,40.17
2017-12-30T22:06:55.230Z,36.13
2017-12-30T22:09:30.319Z,37.67
2017-12-30T22:11:57.067Z,41.93
2017-12-30T22:14:24.190Z,40.83
2017-12-30T22:16:50.957Z,38.20
2017-12-30T22:19:17.662Z,35.33
2017-12-30T22:21:44.357Z,36.30
2017-12-30T22:24:17.216Z,31.43
2017-12-30T22:26:43.900Z,30.03
2017-12-30T22:29:10.626Z,29.73
2017-12-30T22:31:48.647Z,28.93
2017-12-30T22:34:15.354Z,29.27
2017-12-30T22:36:45.452Z,29.07
2017-12-30T22:39:22.613Z,28.03
2017-12-30T22:41:49.988Z,28.60
2017-12-30T22:44:21.392Z,27.30
2017-12-30T22:46:48.126Z,26.70
2017-12-30T22:52:00.428Z,28.40
2017-12-30T22:54:28.137Z,30.43
2017-12-30T22:56:54.849Z,29.77
2017-12-30T22:59:21.604Z,29.67
2017-12-30T23:01:48.396Z,26.50
2017-12-30T23:04:16.178Z,24.47
2017-12-30T23:06:50.288Z,23.47
2017-12-30T23:09:16.974Z,21.07
2017-12-30T23:11:58.436Z,24.03
2017-12-30T23:14:28.837Z,22.40
2017-12-30T23:17:04.994Z,22.87
2017-12-30T23:19:48.692Z,22.57
2017-12-30T23:22:15.424Z,22.27
2017-12-30T23:25:01.204Z,21.07
2017-12-30T23:27:42.165Z,22.07
2017-12-30T23:30:26.176Z,21.33
2017-12-30T23:32:52.951Z,18.93
2017-12-30T23:38:20.742Z,18.30
2017-12-30T23:40:48.510Z,16.77
2017-12-30T23:43:16.123Z,15.30
2017-12-30T23:45:43.606Z,14.23
2017-12-30T23:53:49.168Z,13.50
2017-12-30T23:56:15.902Z,13.83
2017-12-30T23:58:53.432Z,14.33
